Time;durP1;ratioP1;P1;durP2;ratioP2;P2;SDS_P1;SDS_P2;PMS_P1;PMS_P2;Temp;Humidity;BMP_temperature;BMP_pressure;BME280_temperature;BME280_humidity;BME280_pressure;Samples;Min_cycle;Max_cycle;Signal;HPM_P1;HPM_P2
2022/06/05 00:03:48;;;;;;;28.75;23.00;;;;;;;;;;10530146;28;20497;-89
2022/06/05 00:09:08;;;;;;;27.90;23.95;;;;;;;;;;10530032;28;20430;-88
2022/06/05 00:14:10;;;;;;;30.70;24.30;;;;;;;;;;10527298;28;20397;-90
2022/06/05 00:19:12;;;;;;;32.47;26.77;;;;;;;;;;10536519;28;20543;-88
2022/06/05 00:24:15;;;;;;;33.95;27.25;;;;;;;;;;10520143;28;20539;-90
2022/06/05 00:29:43;;;;;;;38.03;30.67;;;;;;;;;;10521588;28;20416;-89
2022/06/05 00:34:45;;;;;;;36.63;30.15;;;;;;;;;;10527576;28;20776;-89
2022/06/05 00:39:56;;;;;;;38.03;30.85;;;;;;;;;;10524105;28;20404;-89
2022/06/05 00:45:02;;;;;;;36.90;29.42;;;;;;;;;;10547781;28;20396;-89
2022/06/05 00:50:10;;;;;;;38.15;29.73;;;;;;;;;;10536674;28;20440;-89
2022/06/05 00:55:14;;;;;;;35.55;28.85;;;;;;;;;;10528701;28;20443;-91
2022/06/05 01:00:19;;;;;;;35.05;29.08;;;;;;;;;;10527252;28;20400;-88
2022/06/05 01:05:23;;;;;;;34.65;28.67;;;;;;;;;;10525609;28;20406;-88
2022/06/05 01:10:38;;;;;;;34.70;28.17;;;;;;;;;;10522758;28;20420;-88
2022/06/05 01:15:50;;;;;;;37.13;28.23;;;;;;;;;;10519712;28;20708;-89
2022/06/05 01:21:10;;;;;;;33.10;28.40;;;;;;;;;;10517415;28;20404;-88
2022/06/05 01:26:22;;;;;;;35.33;27.25;;;;;;;;;;10505073;28;20422;-88
2022/06/05 01:31:30;;;;;;;32.58;26.48;;;;;;;;;;10519716;28;20422;-88
2022/06/05 01:36:38;;;;;;;34.00;26.20;;;;;;;;;;10512992;28;20400;-88
2022/06/05 01:41:45;;;;;;;33.67;25.60;;;;;;;;;;10517733;28;20790;-87
2022/06/05 01:46:48;;;;;;;33.10;25.10;;;;;;;;;;10516044;28;20508;-88
2022/06/05 01:51:57;;;;;;;32.35;26.00;;;;;;;;;;10524091;28;20500;-89
2022/06/05 01:57:05;;;;;;;34.33;25.43;;;;;;;;;;10523285;28;20392;-88
2022/06/05 02:02:11;;;;;;;30.38;24.58;;;;;;;;;;10505512;28;20406;-89
2022/06/05 02:07:18;;;;;;;28.88;24.40;;;;;;;;;;10499481;28;20495;-88
2022/06/05 02:12:22;;;;;;;32.40;24.38;;;;;;;;;;10511230;28;20511;-89
2022/06/05 02:17:24;;;;;;;30.05;23.88;;;;;;;;;;10516092;28;20512;-87
2022/06/05 02:22:29;;;;;;;30.55;23.60;;;;;;;;;;10509384;28;20432;-89
2022/06/05 02:27:33;;;;;;;31.90;24.57;;;;;;;;;;10527913;28;20486;-88
2022/06/05 02:32:47;;;;;;;30.07;23.00;;;;;;;;;;10502928;28;20923;-89
2022/06/05 02:38:02;;;;;;;29.08;24.25;;;;;;;;;;10510333;28;20475;-88
2022/06/05 02:43:13;;;;;;;32.03;24.17;;;;;;;;;;10505048;28;20946;-90
2022/06/05 02:48:23;;;;;;;29.77;24.27;;;;;;;;;;10518120;28;20503;-89
2022/06/05 02:53:26;;;;;;;30.67;24.50;;;;;;;;;;10516679;28;20876;-89
2022/06/05 02:58:30;;;;;;;34.13;25.50;;;;;;;;;;10504929;28;20411;-90
2022/06/05 03:03:31;;;;;;;32.60;25.40;;;;;;;;;;10488116;28;20401;-88
2022/06/05 03:08:33;;;;;;;34.70;26.35;;;;;;;;;;10511440;28;20884;-89
2022/06/05 03:13:36;;;;;;;32.33;26.55;;;;;;;;;;10508830;28;20485;-88
2022/06/05 03:18:38;;;;;;;35.92;27.23;;;;;;;;;;10485300;28;20402;-88
2022/06/05 03:23:40;;;;;;;38.10;28.67;;;;;;;;;;10490005;28;20496;-89
2022/06/05 03:28:44;;;;;;;38.37;27.50;;;;;;;;;;10519056;28;20400;-89
2022/06/05 03:33:46;;;;;;;35.72;28.60;;;;;;;;;;10519571;28;20479;-89
2022/06/05 03:38:48;;;;;;;37.42;27.45;;;;;;;;;;10519497;28;20480;-87
2022/06/05 03:43:51;;;;;;;35.88;26.55;;;;;;;;;;10484439;28;20414;-89
2022/06/05 03:48:53;;;;;;;35.73;25.17;;;;;;;;;;10500249;28;20496;-89
2022/06/05 03:53:55;;;;;;;33.73;25.80;;;;;;;;;;10523424;28;20398;-88
2022/06/05 03:58:58;;;;;;;35.63;26.07;;;;;;;;;;10541888;28;20388;-89
2022/06/05 04:04:00;;;;;;;35.73;25.90;;;;;;;;;;10537165;28;20436;-89
2022/06/05 04:09:07;;;;;;;37.13;25.10;;;;;;;;;;10506915;28;20540;-88
2022/06/05 04:14:11;;;;;;;34.72;26.02;;;;;;;;;;10517854;28;20416;-88
2022/06/05 04:19:12;;;;;;;34.40;26.40;;;;;;;;;;10518374;28;20488;-90
2022/06/05 04:24:15;;;;;;;34.63;26.67;;;;;;;;;;10500467;28;20400;-88
2022/06/05 04:29:18;;;;;;;39.13;28.23;;;;;;;;;;10518909;28;20751;-90
2022/06/05 04:34:23;;;;;;;41.38;29.95;;;;;;;;;;10513687;28;20404;-88
2022/06/05 04:39:25;;;;;;;35.63;28.17;;;;;;;;;;10523596;28;20407;-88
2022/06/05 04:44:28;;;;;;;38.10;28.98;;;;;;;;;;10526464;28;20414;-90
2022/06/05 04:49:30;;;;;;;38.37;29.03;;;;;;;;;;10521747;28;20414;-89
2022/06/05 04:54:32;;;;;;;41.80;29.97;;;;;;;;;;10514667;28;20828;-90
2022/06/05 04:59:35;;;;;;;45.50;30.77;;;;;;;;;;10527682;28;20408;-88
2022/06/05 05:04:37;;;;;;;42.95;31.75;;;;;;;;;;10525654;28;20396;-89
2022/06/05 05:09:39;;;;;;;43.95;32.90;;;;;;;;;;10526828;28;20423;-88
2022/06/05 05:14:43;;;;;;;43.83;32.63;;;;;;;;;;10505800;28;20794;-89
2022/06/05 05:19:44;;;;;;;46.00;31.95;;;;;;;;;;10524602;28;20426;-88
2022/06/05 05:24:47;;;;;;;42.20;31.13;;;;;;;;;;10524532;28;20483;-89
2022/06/05 05:29:51;;;;;;;38.80;29.15;;;;;;;;;;10521919;28;20431;-89
2022/06/05 05:34:53;;;;;;;39.10;27.92;;;;;;;;;;10521216;28;20444;-89
2022/06/05 05:45:16;;;;;;;33.97;25.20;;;;;;;;;;10518312;28;20394;-87
2022/06/05 05:50:18;;;;;;;33.63;24.58;;;;;;;;;;10519154;28;20420;-89
2022/06/05 05:55:21;;;;;;;31.33;23.40;;;;;;;;;;10525689;28;20993;-89
2022/06/05 06:00:24;;;;;;;30.65;22.33;;;;;;;;;;10525401;28;20485;-90
2022/06/05 06:05:26;;;;;;;26.70;21.37;;;;;;;;;;10529418;28;20409;-88
2022/06/05 06:10:28;;;;;;;31.53;23.37;;;;;;;;;;10520109;28;20412;-88
2022/06/05 06:15:32;;;;;;;27.17;19.52;;;;;;;;;;10507302;28;20939;-88
2022/06/05 06:20:33;;;;;;;25.48;20.05;;;;;;;;;;10517811;28;20483;-90
2022/06/05 06:25:37;;;;;;;28.30;21.55;;;;;;;;;;10528644;28;20400;-91
2022/06/05 06:30:42;;;;;;;27.30;18.70;;;;;;;;;;10515523;28;20881;-90
2022/06/05 06:35:43;;;;;;;24.90;20.03;;;;;;;;;;10516746;28;20410;-89
2022/06/05 06:40:45;;;;;;;27.07;20.90;;;;;;;;;;10542850;28;20511;-89
2022/06/05 06:45:48;;;;;;;30.93;23.03;;;;;;;;;;10534779;28;20430;-88
2022/06/05 06:50:50;;;;;;;27.65;20.90;;;;;;;;;;10521484;28;20418;-90
2022/06/05 06:55:53;;;;;;;31.42;22.13;;;;;;;;;;10518726;28;20483;-89
2022/06/05 07:00:56;;;;;;;26.50;21.17;;;;;;;;;;10512351;28;20491;-89
2022/06/05 07:05:58;;;;;;;22.97;18.53;;;;;;;;;;10514845;28;20499;-89
2022/06/05 07:11:00;;;;;;;22.38;16.10;;;;;;;;;;10522188;28;20754;-88
2022/06/05 07:16:07;;;;;;;25.57;16.60;;;;;;;;;;10498627;28;20487;-89
2022/06/05 07:21:10;;;;;;;22.67;16.88;;;;;;;;;;10520138;28;20483;-90
2022/06/05 07:26:14;;;;;;;23.37;15.97;;;;;;;;;;10522986;28;20491;-89
2022/06/05 07:31:18;;;;;;;18.00;14.27;;;;;;;;;;10511311;28;20785;-88
2022/06/05 07:36:21;;;;;;;18.90;13.90;;;;;;;;;;10520203;28;20392;-90
2022/06/05 07:41:27;;;;;;;18.58;13.13;;;;;;;;;;10498925;28;20404;-90
2022/06/05 07:46:33;;;;;;;17.77;12.48;;;;;;;;;;10517633;28;20404;-89
2022/06/05 07:56:54;;;;;;;14.50;9.60;;;;;;;;;;10517346;28;20392;-89
2022/06/05 08:01:58;;;;;;;13.75;10.30;;;;;;;;;;10516856;28;20414;-83
2022/06/05 08:07:02;;;;;;;17.92;10.57;;;;;;;;;;10518788;28;20487;-83
2022/06/05 08:12:05;;;;;;;11.88;8.95;;;;;;;;;;10523326;28;20424;-84
2022/06/05 08:17:14;;;;;;;16.23;10.20;;;;;;;;;;10528988;28;20408;-89
2022/06/05 08:22:19;;;;;;;14.05;9.88;;;;;;;;;;10521661;28;20432;-90
2022/06/05 08:27:25;;;;;;;13.57;9.73;;;;;;;;;;10532433;28;20486;-90
2022/06/05 08:32:29;;;;;;;12.68;8.98;;;;;;;;;;10511163;28;20504;-88
2022/06/05 08:43:09;;;;;;;12.02;9.65;;;;;;;;;;10523880;28;20420;-89
2022/06/05 08:48:19;;;;;;;15.75;10.32;;;;;;;;;;10542039;28;20507;-88
2022/06/05 08:53:48;;;;;;;12.65;10.00;;;;;;;;;;10562339;28;20768;-88
2022/06/05 08:58:55;;;;;;;16.03;10.67;;;;;;;;;;10552900;27;20399;-90
2022/06/05 09:04:08;;;;;;;13.77;9.70;;;;;;;;;;10521123;28;20408;-90
2022/06/05 09:09:17;;;;;;;16.02;9.73;;;;;;;;;;10521336;28;20400;-90
2022/06/05 09:14:30;;;;;;;13.77;9.17;;;;;;;;;;10521017;28;20410;-89
2022/06/05 09:19:34;;;;;;;13.77;9.27;;;;;;;;;;10515104;28;20400;-90
2022/06/05 09:24:45;;;;;;;15.73;10.18;;;;;;;;;;10517483;28;20401;-90
2022/06/05 09:29:53;;;;;;;14.38;9.73;;;;;;;;;;10515569;28;20880;-89
2022/06/05 09:35:00;;;;;;;13.80;8.93;;;;;;;;;;10510454;28;20409;-91
2022/06/05 09:40:16;;;;;;;14.75;8.50;;;;;;;;;;10509884;28;20392;-91
2022/06/05 09:45:34;;;;;;;12.50;9.20;;;;;;;;;;10510754;28;20896;-89
2022/06/05 09:50:37;;;;;;;13.20;8.47;;;;;;;;;;10518334;28;20776;-88
2022/06/05 09:55:52;;;;;;;11.35;8.50;;;;;;;;;;10517719;28;20418;-91
2022/06/05 10:00:56;;;;;;;13.47;9.93;;;;;;;;;;10514740;28;20406;-89
2022/06/05 10:06:25;;;;;;;16.75;10.50;;;;;;;;;;10519548;28;20485;-89
2022/06/05 10:11:37;;;;;;;15.63;10.50;;;;;;;;;;10492626;28;20794;-89
2022/06/05 10:16:47;;;;;;;16.30;10.80;;;;;;;;;;10517202;28;20414;-91
2022/06/05 10:21:58;;;;;;;15.13;10.38;;;;;;;;;;10518356;28;20406;-89
2022/06/05 10:27:02;;;;;;;14.75;10.07;;;;;;;;;;10521739;28;20401;-90
2022/06/05 10:32:08;;;;;;;13.03;9.43;;;;;;;;;;10528106;22;20489;-88
2022/06/05 10:37:21;;;;;;;11.77;9.23;;;;;;;;;;10489413;28;20390;-89
2022/06/05 10:42:30;;;;;;;11.85;8.07;;;;;;;;;;10507272;28;20496;-89
2022/06/05 10:47:49;;;;;;;11.90;7.38;;;;;;;;;;10513828;28;20503;-88
2022/06/05 10:52:59;;;;;;;12.13;8.38;;;;;;;;;;10502650;28;20489;-87
2022/06/05 10:58:11;;;;;;;13.63;7.68;;;;;;;;;;10509958;28;20434;-88
2022/06/05 11:03:21;;;;;;;11.15;7.50;;;;;;;;;;10501499;28;20405;-88
2022/06/05 11:08:37;;;;;;;12.05;7.10;;;;;;;;;;10507882;28;20414;-87
2022/06/05 11:13:47;;;;;;;10.18;7.55;;;;;;;;;;10503865;28;20660;-88
2022/06/05 11:18:54;;;;;;;12.30;6.50;;;;;;;;;;10508642;28;20829;-87
2022/06/05 11:24:01;;;;;;;12.40;6.60;;;;;;;;;;10508189;28;20424;-96
2022/06/05 11:29:18;;;;;;;10.98;6.90;;;;;;;;;;10505067;28;20698;-90
2022/06/05 11:34:29;;;;;;;13.70;7.30;;;;;;;;;;10508618;28;20465;-90
2022/06/05 11:39:40;;;;;;;12.68;6.93;;;;;;;;;;10501133;28;21027;-91
2022/06/05 11:44:50;;;;;;;9.07;6.67;;;;;;;;;;10502901;28;20406;-89
2022/06/05 11:50:09;;;;;;;11.75;6.90;;;;;;;;;;10503195;28;20406;-87
2022/06/05 11:55:27;;;;;;;12.07;7.27;;;;;;;;;;10505609;28;20406;-89
2022/06/05 12:00:35;;;;;;;12.15;6.90;;;;;;;;;;10506642;28;20495;-89
2022/06/05 12:05:54;;;;;;;9.48;7.13;;;;;;;;;;10512504;28;20414;-89
2022/06/05 12:11:04;;;;;;;9.80;7.20;;;;;;;;;;10508488;28;20851;-89
2022/06/05 12:16:11;;;;;;;13.07;6.90;;;;;;;;;;10508577;28;20479;-89
2022/06/05 12:21:19;;;;;;;14.27;7.70;;;;;;;;;;10491991;28;20488;-88
2022/06/05 12:26:34;;;;;;;12.00;7.40;;;;;;;;;;10509254;28;20404;-89
2022/06/05 12:31:40;;;;;;;8.98;6.95;;;;;;;;;;10512944;28;20509;-88
2022/06/05 12:36:45;;;;;;;12.05;6.93;;;;;;;;;;10502522;28;20414;-90
2022/06/05 12:42:00;;;;;;;14.60;6.60;;;;;;;;;;10496481;28;20477;-90
2022/06/05 12:47:07;;;;;;;11.13;6.88;;;;;;;;;;10495420;28;21014;-89
2022/06/05 12:52:25;;;;;;;10.18;6.45;;;;;;;;;;10497558;28;20525;-89
2022/06/05 12:57:32;;;;;;;12.05;6.07;;;;;;;;;;10512860;28;20422;-89
2022/06/05 13:02:38;;;;;;;13.60;5.90;;;;;;;;;;10517332;28;20499;-89
2022/06/05 13:07:47;;;;;;;8.10;5.97;;;;;;;;;;10503918;28;20446;-90
2022/06/05 13:12:54;;;;;;;12.52;5.60;;;;;;;;;;10514027;28;20428;-90
2022/06/05 13:18:03;;;;;;;8.88;5.28;;;;;;;;;;10514781;28;20408;-89
2022/06/05 13:23:19;;;;;;;7.22;4.78;;;;;;;;;;10508948;28;20406;-88
2022/06/05 13:28:33;;;;;;;8.30;4.57;;;;;;;;;;10514306;28;20399;-87
2022/06/05 13:33:38;;;;;;;8.07;4.83;;;;;;;;;;10507744;28;20442;-88
2022/06/05 13:38:51;;;;;;;8.35;4.90;;;;;;;;;;10511181;28;20420;-88
2022/06/05 13:44:02;;;;;;;8.63;4.30;;;;;;;;;;10506287;28;20494;-87
2022/06/05 13:49:13;;;;;;;6.53;4.30;;;;;;;;;;10511475;28;20408;-89
2022/06/05 13:54:24;;;;;;;7.53;4.10;;;;;;;;;;10507488;28;20414;-88
2022/06/05 13:59:35;;;;;;;8.32;4.32;;;;;;;;;;10507777;28;20437;-88
2022/06/05 14:04:57;;;;;;;8.93;4.50;;;;;;;;;;10512218;28;20482;-89
2022/06/05 14:10:17;;;;;;;7.57;4.20;;;;;;;;;;10510584;28;20411;-89
2022/06/05 14:15:27;;;;;;;8.43;3.70;;;;;;;;;;10511392;28;20493;-89
2022/06/05 14:20:33;;;;;;;6.85;3.88;;;;;;;;;;10505311;28;20405;-88
2022/06/05 14:25:40;;;;;;;7.40;3.87;;;;;;;;;;10513457;28;20411;-88
2022/06/05 14:30:53;;;;;;;11.65;4.10;;;;;;;;;;10512945;28;20435;-89
2022/06/05 14:35:56;;;;;;;9.97;3.90;;;;;;;;;;10508707;28;20483;-89
2022/06/05 14:41:07;;;;;;;10.07;3.92;;;;;;;;;;10511049;28;20408;-89
2022/06/05 14:46:22;;;;;;;8.30;3.70;;;;;;;;;;10504072;28;20416;-88
2022/06/05 14:51:35;;;;;;;8.27;3.70;;;;;;;;;;10493088;28;20454;-88
2022/06/05 15:02:16;;;;;;;7.60;3.57;;;;;;;;;;10509201;28;20402;-89
2022/06/05 15:07:24;;;;;;;7.55;3.78;;;;;;;;;;10506412;28;20418;-89
2022/06/05 15:12:34;;;;;;;6.57;3.30;;;;;;;;;;10509393;28;20423;-89
2022/06/05 15:17:42;;;;;;;9.32;3.55;;;;;;;;;;10512624;28;20867;-89
2022/06/05 15:23:03;;;;;;;6.90;3.28;;;;;;;;;;10509804;28;20750;-89
2022/06/05 15:28:13;;;;;;;7.78;3.53;;;;;;;;;;10512689;28;20695;-87
2022/06/05 15:33:26;;;;;;;6.43;3.80;;;;;;;;;;10510863;28;20505;-89
2022/06/05 15:39:07;;;;;;;8.50;3.95;;;;;;;;;;10506037;28;20406;-89
2022/06/05 15:44:32;;;;;;;7.38;3.47;;;;;;;;;;10504440;28;20411;-88
2022/06/05 15:49:52;;;;;;;7.43;3.67;;;;;;;;;;10509457;28;20408;-88
2022/06/05 15:55:08;;;;;;;9.38;3.55;;;;;;;;;;10503101;28;20413;-88
2022/06/05 16:00:14;;;;;;;7.20;4.40;;;;;;;;;;10507462;28;20413;-88
2022/06/05 16:05:21;;;;;;;8.98;3.47;;;;;;;;;;10502324;28;20643;-88
2022/06/05 16:10:27;;;;;;;6.93;4.03;;;;;;;;;;10500886;28;20422;-88
2022/06/05 16:15:36;;;;;;;9.95;3.38;;;;;;;;;;10503776;28;20419;-88
2022/06/05 16:20:47;;;;;;;7.83;3.77;;;;;;;;;;10507885;28;20418;-89
2022/06/05 16:25:54;;;;;;;9.18;4.05;;;;;;;;;;10500282;28;20497;-89
2022/06/05 16:31:27;;;;;;;5.78;3.70;;;;;;;;;;10513725;28;20970;-88
2022/06/05 16:42:18;;;;;;;8.70;3.53;;;;;;;;;;10510950;28;20463;-89
2022/06/05 16:47:49;;;;;;;7.28;3.88;;;;;;;;;;10514299;28;20408;-90
2022/06/05 16:52:52;;;;;;;8.10;4.53;;;;;;;;;;10502706;28;20927;-89
2022/06/05 16:57:56;;;;;;;9.10;4.50;;;;;;;;;;10512362;28;20834;-90
2022/06/05 17:03:27;;;;;;;9.02;4.15;;;;;;;;;;10506087;28;20432;-89
2022/06/05 17:08:48;;;;;;;8.45;4.47;;;;;;;;;;10508125;28;20398;-90
2022/06/05 17:13:49;;;;;;;7.13;4.05;;;;;;;;;;10516498;28;20416;-90
2022/06/05 17:18:54;;;;;;;7.83;4.00;;;;;;;;;;10510551;28;20412;-89
2022/06/05 17:24:15;;;;;;;10.60;4.10;;;;;;;;;;10508225;28;20710;-90
2022/06/05 17:29:33;;;;;;;7.13;3.90;;;;;;;;;;10511996;28;20795;-89
2022/06/05 17:34:42;;;;;;;8.10;4.33;;;;;;;;;;10510221;28;20423;-89
2022/06/05 17:40:14;;;;;;;8.90;3.97;;;;;;;;;;10509718;28;20545;-89
2022/06/05 17:45:28;;;;;;;9.90;4.50;;;;;;;;;;10509050;28;20403;-91
2022/06/05 17:50:40;;;;;;;8.30;4.45;;;;;;;;;;10506132;28;20410;-89
2022/06/05 17:55:47;;;;;;;8.45;4.47;;;;;;;;;;10505602;28;20423;-89
2022/06/05 18:00:54;;;;;;;9.57;4.50;;;;;;;;;;10513958;28;20491;-90
2022/06/05 18:06:01;;;;;;;12.17;4.27;;;;;;;;;;10505517;28;20403;-90
2022/06/05 18:11:14;;;;;;;18.33;2.70;;;;;;;;;;10501275;28;20446;-90
2022/06/05 18:16:23;;;;;;;8.52;1.90;;;;;;;;;;10497396;28;20416;-84
2022/06/05 18:21:33;;;;;;;4.60;1.37;;;;;;;;;;10479885;28;20743;-86
2022/06/05 18:32:06;;;;;;;6.90;2.00;;;;;;;;;;10483729;28;20422;-84
2022/06/05 18:42:37;;;;;;;3.00;1.60;;;;;;;;;;10507666;28;20419;-88
2022/06/05 18:47:44;;;;;;;3.37;1.40;;;;;;;;;;10507386;28;20412;-89
2022/06/05 18:52:47;;;;;;;3.73;1.27;;;;;;;;;;10499399;28;20507;-90
2022/06/05 18:57:51;;;;;;;3.67;1.20;;;;;;;;;;10497969;28;21260;-92
2022/06/05 19:02:55;;;;;;;3.30;1.30;;;;;;;;;;10496818;28;20423;-87
2022/06/05 19:07:59;;;;;;;4.20;1.55;;;;;;;;;;10503655;28;20412;-86
2022/06/05 19:13:09;;;;;;;3.25;1.65;;;;;;;;;;10495730;28;20495;-88
2022/06/05 19:18:17;;;;;;;3.63;1.40;;;;;;;;;;10500070;28;20822;-89
2022/06/05 19:23:31;;;;;;;4.70;1.63;;;;;;;;;;10504968;28;20408;-88
2022/06/05 19:28:41;;;;;;;2.80;1.70;;;;;;;;;;10504457;28;20413;-91
2022/06/05 19:33:49;;;;;;;6.80;2.40;;;;;;;;;;10496720;28;20630;-90
2022/06/05 19:38:59;;;;;;;3.42;2.08;;;;;;;;;;10506210;28;20764;-90
2022/06/05 19:44:19;;;;;;;4.82;2.03;;;;;;;;;;10498730;28;20413;-88
2022/06/05 19:49:26;;;;;;;5.32;2.00;;;;;;;;;;10491164;28;20414;-89
2022/06/05 19:54:33;;;;;;;4.37;2.13;;;;;;;;;;10505429;28;21072;-89
2022/06/05 19:59:39;;;;;;;5.73;2.60;;;;;;;;;;10493463;28;20424;-89
2022/06/05 20:04:50;;;;;;;5.22;2.40;;;;;;;;;;10497334;28;20405;-90
2022/06/05 20:09:58;;;;;;;5.63;2.47;;;;;;;;;;10504971;28;20888;-88
2022/06/05 20:15:15;;;;;;;4.75;2.45;;;;;;;;;;10491382;28;20432;-89
2022/06/05 20:20:22;;;;;;;10.48;3.35;;;;;;;;;;10497685;28;20766;-89
2022/06/05 20:25:31;;;;;;;4.33;2.60;;;;;;;;;;10496987;28;20424;-88
2022/06/05 20:30:40;;;;;;;5.87;2.77;;;;;;;;;;10495362;28;21348;-88
2022/06/05 20:36:07;;;;;;;6.32;2.78;;;;;;;;;;10493791;28;20505;-89
2022/06/05 20:41:15;;;;;;;6.25;3.00;;;;;;;;;;10486319;28;20412;-90
2022/06/05 20:46:26;;;;;;;10.68;3.25;;;;;;;;;;10495572;28;20435;-90
2022/06/05 20:51:30;;;;;;;5.47;2.65;;;;;;;;;;10496354;28;20537;-89
2022/06/05 20:56:40;;;;;;;5.10;2.40;;;;;;;;;;10494284;28;20413;-90
2022/06/05 21:01:50;;;;;;;6.10;2.45;;;;;;;;;;10509734;28;20418;-89
2022/06/05 21:07:11;;;;;;;5.88;2.70;;;;;;;;;;10496335;28;20441;-89
2022/06/05 21:17:41;;;;;;;4.18;2.78;;;;;;;;;;10501846;28;20922;-89
2022/06/05 21:22:47;;;;;;;6.40;2.55;;;;;;;;;;10494330;28;20417;-91
2022/06/05 21:27:52;;;;;;;4.55;2.42;;;;;;;;;;10473421;28;20406;-89
2022/06/05 21:33:00;;;;;;;7.22;2.83;;;;;;;;;;10497120;28;20422;-90
2022/06/05 21:38:07;;;;;;;3.80;2.80;;;;;;;;;;10501533;28;20416;-90
2022/06/05 21:43:16;;;;;;;4.75;2.90;;;;;;;;;;10497657;28;20998;-90
2022/06/05 21:48:20;;;;;;;8.18;3.03;;;;;;;;;;10504279;28;20508;-89
2022/06/05 21:53:31;;;;;;;6.88;3.25;;;;;;;;;;10499312;28;20789;-89
2022/06/05 21:58:34;;;;;;;7.30;3.53;;;;;;;;;;10509034;28;21117;-90
2022/06/05 22:03:41;;;;;;;5.90;3.67;;;;;;;;;;10495504;28;20431;-90
2022/06/05 22:08:43;;;;;;;5.73;3.40;;;;;;;;;;10501863;28;20762;-90
2022/06/05 22:13:45;;;;;;;7.97;4.00;;;;;;;;;;10502298;28;20548;-89
2022/06/05 22:18:49;;;;;;;6.80;4.17;;;;;;;;;;10499612;28;20965;-88
2022/06/05 22:23:51;;;;;;;6.93;4.03;;;;;;;;;;10500611;28;20412;-90
2022/06/05 22:28:53;;;;;;;7.15;4.32;;;;;;;;;;10487881;28;20404;-90
2022/06/05 22:33:56;;;;;;;7.03;4.20;;;;;;;;;;10474547;28;20457;-89
2022/06/05 22:38:58;;;;;;;6.95;4.68;;;;;;;;;;10501558;28;20437;-90
2022/06/05 22:44:00;;;;;;;8.57;4.05;;;;;;;;;;10482205;28;20493;-90
2022/06/05 22:49:07;;;;;;;7.65;4.43;;;;;;;;;;10511457;28;20442;-90
2022/06/05 22:54:09;;;;;;;6.75;4.13;;;;;;;;;;10523308;28;20424;-90
2022/06/05 22:59:11;;;;;;;7.68;4.60;;;;;;;;;;10522899;28;20418;-90
2022/06/05 23:04:15;;;;;;;7.97;4.33;;;;;;;;;;10521174;28;20410;-90
2022/06/05 23:09:17;;;;;;;7.68;4.70;;;;;;;;;;10497739;28;20415;-90
2022/06/05 23:14:18;;;;;;;9.68;4.38;;;;;;;;;;10516546;28;20412;-90
2022/06/05 23:19:40;;;;;;;6.70;4.20;;;;;;;;;;10519473;28;20411;-90
2022/06/05 23:24:43;;;;;;;6.82;4.20;;;;;;;;;;10514047;28;20400;-90
2022/06/05 23:29:45;;;;;;;7.13;3.90;;;;;;;;;;10514414;28;20973;-90
2022/06/05 23:34:48;;;;;;;9.13;4.00;;;;;;;;;;10516948;28;20499;-90
2022/06/05 23:39:50;;;;;;;6.88;3.60;;;;;;;;;;10519883;28;20392;-89
2022/06/05 23:44:52;;;;;;;4.53;3.30;;;;;;;;;;10511891;28;20464;-90
2022/06/05 23:49:56;;;;;;;3.10;2.80;;;;;;;;;;10500670;28;20407;-90
2022/06/05 23:54:58;;;;;;;3.85;2.35;;;;;;;;;;10517068;28;21063;-91
